Time;durP1;ratioP1;P1;durP2;ratioP2;P2;SDS_P1;SDS_P2;PMS_P1;PMS_P2;Temp;Humidity;BMP_temperature;BMP_pressure;BME280_temperature;BME280_humidity;BME280_pressure;Samples;Min_cycle;Max_cycle;Signal;HPM_P1;HPM_P2
2021/12/10 00:01:42;;;;;;;142.07;49.60;;;;;;;3.87;93.75;100304.33;125259;1102;104294;-80
2021/12/10 00:04:15;;;;;;;157.53;55.30;;;;;;;3.90;93.71;100301.03;125265;1102;104479;-81
2021/12/10 00:06:49;;;;;;;149.87;53.63;;;;;;;3.90;94.21;100299.31;125265;1102;104153;-81
2021/12/10 00:09:27;;;;;;;153.70;55.80;;;;;;;3.92;94.15;100282.12;125316;1102;105303;-81
2021/12/10 00:12:03;;;;;;;145.33;53.87;;;;;;;3.93;93.42;100294.30;125276;1102;104306;-81
2021/12/10 00:14:36;;;;;;;147.43;51.80;;;;;;;3.95;93.61;100291.80;125229;1102;104191;-80
2021/12/10 00:17:10;;;;;;;151.70;54.07;;;;;;;3.96;94.07;100288.41;125292;1102;104285;-81
2021/12/10 00:19:49;;;;;;;152.77;55.03;;;;;;;3.98;93.82;100279.00;125278;1101;104316;-81
2021/12/10 00:22:30;;;;;;;153.95;55.50;;;;;;;4.00;93.75;100285.16;125305;1102;104402;-81
2021/12/10 00:25:05;;;;;;;148.30;53.33;;;;;;;4.03;94.23;100282.75;125315;1102;104153;-79
2021/12/10 00:27:37;;;;;;;158.80;58.13;;;;;;;4.06;93.83;100277.73;125270;1102;104240;-81
2021/12/10 00:30:18;;;;;;;166.17;59.07;;;;;;;4.09;94.47;100274.43;125308;1102;104356;-81
2021/12/10 00:33:02;;;;;;;164.77;59.70;;;;;;;4.11;93.78;100272.80;125375;1099;104287;-81
2021/12/10 00:35:35;;;;;;;154.55;58.02;;;;;;;4.12;94.27;100266.81;125837;1099;104219;-82
2021/12/10 00:38:08;;;;;;;156.07;57.50;;;;;;;4.16;93.79;100271.39;125512;1099;104226;-81
2021/12/10 00:40:44;;;;;;;169.20;59.13;;;;;;;4.17;94.61;100270.56;125244;1099;104153;-82
2021/12/10 00:43:16;;;;;;;166.43;61.42;;;;;;;4.19;94.03;100250.80;125302;1099;104146;-82
2021/12/10 00:45:48;;;;;;;161.33;57.80;;;;;;;4.22;93.83;100244.86;125190;1099;104306;-81
2021/12/10 00:48:21;;;;;;;147.27;58.70;;;;;;;4.23;93.92;100249.25;125117;1102;104242;-82
2021/12/10 00:50:57;;;;;;;159.27;59.23;;;;;;;4.25;93.96;100255.42;125191;1099;104222;-82
2021/12/10 00:53:31;;;;;;;166.17;60.57;;;;;;;4.28;94.18;100242.61;125310;1099;104255;-80
2021/12/10 00:56:06;;;;;;;165.53;62.27;;;;;;;4.30;93.97;100234.11;125225;1099;104159;-81
2021/12/10 00:58:39;;;;;;;157.20;58.97;;;;;;;4.31;94.12;100225.48;125209;1099;104146;-81
2021/12/10 01:01:21;;;;;;;158.93;61.00;;;;;;;4.35;94.51;100228.25;125192;1102;104142;-81
2021/12/10 01:03:56;;;;;;;173.73;64.17;;;;;;;4.37;94.22;100224.06;125231;1102;104213;-80
2021/12/10 01:06:30;;;;;;;157.43;56.77;;;;;;;4.39;94.26;100217.23;125277;1099;104588;-81
2021/12/10 01:09:06;;;;;;;175.55;65.70;;;;;;;4.42;94.30;100218.30;125184;1099;104275;-82
2021/12/10 01:11:47;;;;;;;185.77;66.40;;;;;;;4.46;94.37;100214.19;125295;1099;104159;-79
2021/12/10 01:14:26;;;;;;;163.87;60.60;;;;;;;4.50;94.41;100216.13;125226;1099;104188;-80
2021/12/10 01:25:35;;;;;;;176.90;66.77;;;;;;;4.64;94.57;100183.09;125203;1099;104166;-81
2021/12/10 01:28:11;;;;;;;188.97;68.70;;;;;;;4.66;94.49;100179.78;125247;1099;104207;-81
2021/12/10 01:30:42;;;;;;;188.43;70.07;;;;;;;4.70;94.35;100185.14;125221;1099;104230;-82
2021/12/10 01:33:17;;;;;;;184.97;65.83;;;;;;;4.73;94.87;100186.20;125302;1099;104155;-81
2021/12/10 01:35:54;;;;;;;170.70;65.10;;;;;;;4.77;94.99;100184.64;125288;1102;104233;-80
2021/12/10 01:38:31;;;;;;;190.60;68.23;;;;;;;4.81;94.90;100184.89;125141;1099;104570;-82
2021/12/10 01:41:07;;;;;;;170.70;68.23;;;;;;;4.86;95.23;100182.54;125164;1099;104329;-81
2021/12/10 01:43:42;;;;;;;176.33;65.33;;;;;;;4.89;95.21;100174.91;125242;1099;105685;-81
2021/12/10 01:46:19;;;;;;;186.33;66.50;;;;;;;4.93;95.17;100171.67;125259;1099;104149;-81
2021/12/10 01:48:55;;;;;;;191.93;69.53;;;;;;;4.96;95.06;100166.63;125264;1099;104169;-80
2021/12/10 01:51:29;;;;;;;183.37;64.83;;;;;;;5.00;95.33;100152.98;126203;1099;104345;-82
2021/12/10 01:54:05;;;;;;;183.80;64.23;;;;;;;5.04;95.05;100152.31;126178;1099;104630;-80
2021/12/10 01:56:43;;;;;;;177.83;64.70;;;;;;;5.10;95.55;100140.46;126229;1099;104140;-82
2021/12/10 01:59:18;;;;;;;181.77;67.80;;;;;;;5.12;95.49;100137.11;125835;1098;105292;-82
2021/12/10 02:01:55;;;;;;;181.10;65.77;;;;;;;5.16;95.38;100128.66;125235;1099;104232;-82
2021/12/10 02:04:28;;;;;;;171.00;63.27;;;;;;;5.19;95.43;100126.22;125188;1100;104348;-81
2021/12/10 02:07:01;;;;;;;185.52;71.97;;;;;;;5.22;95.63;100128.09;125171;1099;104205;-82
2021/12/10 02:09:33;;;;;;;179.53;64.93;;;;;;;5.26;95.38;100122.20;125367;1102;104194;-80
2021/12/10 02:12:06;;;;;;;189.27;65.70;;;;;;;5.28;95.64;100120.56;126128;1099;104194;-81
2021/12/10 02:14:37;;;;;;;191.53;67.63;;;;;;;5.28;95.66;100122.28;126121;1098;104226;-81
2021/12/10 02:17:09;;;;;;;178.97;64.27;;;;;;;5.30;95.76;100123.24;125225;1102;104194;-81
2021/12/10 02:19:42;;;;;;;174.37;66.47;;;;;;;5.33;95.71;100111.30;125229;1102;104159;-80
2021/12/10 02:22:13;;;;;;;175.57;63.20;;;;;;;5.35;95.82;100112.27;125265;1102;104309;-80
2021/12/10 02:24:46;;;;;;;195.27;67.27;;;;;;;5.37;95.97;100105.42;125288;1102;104411;-80
2021/12/10 02:27:17;;;;;;;175.20;64.20;;;;;;;5.40;95.90;100100.37;125293;1102;104252;-81
2021/12/10 02:29:49;;;;;;;185.27;65.17;;;;;;;5.45;95.93;100094.52;125273;1102;104306;-79
2021/12/10 02:32:22;;;;;;;178.47;66.30;;;;;;;5.49;96.23;100086.05;125292;1101;104188;-80
2021/12/10 02:34:54;;;;;;;184.53;66.90;;;;;;;5.53;96.16;100090.57;125286;1102;104666;-82
2021/12/10 02:37:26;;;;;;;196.10;68.40;;;;;;;5.60;96.32;100094.39;125260;1101;104213;-81
2021/12/10 02:39:57;;;;;;;197.97;69.10;;;;;;;5.64;96.12;100086.81;125188;1102;104285;-80
2021/12/10 02:42:29;;;;;;;196.43;64.27;;;;;;;5.68;96.29;100086.12;125190;1102;104210;-81
2021/12/10 02:45:00;;;;;;;197.00;65.67;;;;;;;5.73;96.49;100082.05;125134;1102;104213;-81
2021/12/10 02:47:31;;;;;;;189.10;65.87;;;;;;;5.80;96.34;100079.70;125188;1102;104176;-81
2021/12/10 02:50:03;;;;;;;189.93;66.53;;;;;;;5.84;96.64;100079.93;125140;1102;104271;-81
2021/12/10 02:52:35;;;;;;;192.87;67.30;;;;;;;5.89;96.60;100077.55;125198;1099;104149;-81
2021/12/10 02:55:10;;;;;;;167.27;58.10;;;;;;;5.93;96.36;100079.48;125165;1099;104323;-81
2021/12/10 02:57:44;;;;;;;184.57;61.57;;;;;;;5.96;96.40;100068.34;125291;1099;104153;-80
2021/12/10 03:00:21;;;;;;;190.18;65.10;;;;;;;6.01;96.53;100075.56;125204;1099;104133;-81
2021/12/10 03:02:53;;;;;;;180.43;63.83;;;;;;;6.06;96.90;100068.88;125242;1099;104191;-81
2021/12/10 03:05:24;;;;;;;178.77;61.80;;;;;;;6.12;96.80;100068.25;125281;1102;104280;-80
2021/12/10 03:07:56;;;;;;;197.43;66.03;;;;;;;6.15;96.48;100070.12;125307;1099;104405;-80
2021/12/10 03:10:30;;;;;;;175.13;64.43;;;;;;;6.18;96.86;100070.27;125209;1102;104175;-80
2021/12/10 03:13:03;;;;;;;180.07;60.60;;;;;;;6.21;96.89;100065.19;125326;1099;104160;-80
2021/12/10 03:15:35;;;;;;;189.13;63.53;;;;;;;6.24;96.81;100074.03;125260;1099;104211;-80
2021/12/10 03:18:11;;;;;;;174.97;61.50;;;;;;;6.28;97.06;100069.88;125246;1099;104155;-80
2021/12/10 03:20:43;;;;;;;181.07;64.97;;;;;;;6.32;96.70;100073.50;125236;1099;105537;-81
2021/12/10 03:23:15;;;;;;;180.00;64.50;;;;;;;6.34;96.23;100066.64;125272;1099;104281;-80
2021/12/10 03:25:47;;;;;;;169.47;61.60;;;;;;;6.37;97.09;100070.27;125308;1099;104201;-81
2021/12/10 03:28:18;;;;;;;160.87;60.30;;;;;;;6.38;97.15;100073.78;125216;1099;104274;-81
2021/12/10 03:30:52;;;;;;;168.90;61.77;;;;;;;6.40;96.79;100072.13;125209;1099;104152;-81
2021/12/10 03:33:23;;;;;;;184.78;65.10;;;;;;;6.43;97.16;100072.27;125331;1099;104171;-80
2021/12/10 03:35:55;;;;;;;173.13;61.20;;;;;;;6.44;97.19;100067.13;125256;1099;104622;-80
2021/12/10 03:38:28;;;;;;;177.77;61.20;;;;;;;6.46;97.30;100061.98;125297;1099;104644;-80
2021/12/10 03:41:00;;;;;;;168.00;56.92;;;;;;;6.49;97.13;100064.73;125130;1099;104686;-81
2021/12/10 03:43:34;;;;;;;170.40;59.83;;;;;;;6.52;97.17;100057.05;125255;1099;104299;-81
2021/12/10 03:46:07;;;;;;;167.50;62.03;;;;;;;6.55;96.84;100053.70;125284;1099;104236;-82
2021/12/10 03:48:42;;;;;;;170.87;59.87;;;;;;;6.57;97.15;100052.92;125130;1099;104315;-80
2021/12/10 03:51:17;;;;;;;171.73;59.17;;;;;;;6.59;97.84;100053.91;125375;1099;104143;-81
2021/12/10 03:53:49;;;;;;;148.83;53.33;;;;;;;6.60;96.87;100050.45;125886;1099;104175;-80
2021/12/10 03:56:24;;;;;;;157.67;57.70;;;;;;;6.64;97.50;100051.50;125884;1099;104149;-81
2021/12/10 03:58:59;;;;;;;159.97;59.80;;;;;;;6.65;97.14;100048.05;125908;1099;104301;-81
2021/12/10 04:01:33;;;;;;;155.63;59.47;;;;;;;6.69;97.33;100043.88;125220;1099;104317;-82
2021/12/10 04:04:09;;;;;;;153.45;59.05;;;;;;;6.73;97.60;100046.69;125242;1099;104245;-81
2021/12/10 04:06:40;;;;;;;155.97;56.13;;;;;;;6.76;97.57;100049.44;125251;1099;104219;-80
2021/12/10 04:09:12;;;;;;;145.90;55.77;;;;;;;6.81;97.68;100053.13;125231;1099;102842;-82
2021/12/10 04:11:44;;;;;;;154.70;56.93;;;;;;;6.84;97.59;100044.55;125309;1099;102587;-80
2021/12/10 04:14:15;;;;;;;149.80;54.37;;;;;;;6.87;97.48;100039.44;125860;1099;104201;-81
2021/12/10 04:16:53;;;;;;;142.90;56.20;;;;;;;6.90;97.41;100028.26;125826;1099;104220;-80
2021/12/10 04:19:27;;;;;;;146.70;56.83;;;;;;;6.93;97.40;100034.48;125838;1099;104150;-81
2021/12/10 04:22:01;;;;;;;135.10;54.37;;;;;;;6.98;98.02;100038.20;125201;1102;104207;-82
2021/12/10 04:24:36;;;;;;;145.25;58.85;;;;;;;7.00;97.79;100044.37;125230;1099;104631;-81
2021/12/10 04:27:11;;;;;;;151.13;58.00;;;;;;;7.04;97.59;100040.16;125223;1102;104187;-80
2021/12/10 04:29:43;;;;;;;147.43;59.80;;;;;;;7.09;97.87;100045.58;125220;1099;104152;-81
2021/12/10 04:32:15;;;;;;;142.13;58.20;;;;;;;7.11;97.50;100047.44;125380;1099;104156;-79
2021/12/10 04:34:47;;;;;;;144.33;53.53;;;;;;;7.13;97.63;100042.28;125731;1099;104200;-82
2021/12/10 04:37:19;;;;;;;144.20;54.83;;;;;;;7.13;97.74;100043.16;125192;1099;104150;-80
2021/12/10 04:39:50;;;;;;;141.27;56.47;;;;;;;7.16;97.28;100034.58;125611;1099;104325;-82
2021/12/10 04:42:24;;;;;;;142.90;56.97;;;;;;;7.18;97.87;100036.44;125474;1099;104181;-82
2021/12/10 04:44:58;;;;;;;149.37;56.17;;;;;;;7.23;97.75;100039.24;125145;1102;104178;-81
2021/12/10 04:47:30;;;;;;;143.40;57.00;;;;;;;7.26;97.39;100033.23;125130;1099;104306;-81
2021/12/10 04:50:04;;;;;;;140.43;63.57;;;;;;;7.30;97.51;100027.33;125149;1099;104306;-82
2021/12/10 04:52:36;;;;;;;147.20;66.80;;;;;;;7.35;97.56;100021.48;125114;1099;104175;-81
2021/12/10 04:55:10;;;;;;;151.47;64.80;;;;;;;7.40;98.09;100013.80;125229;1099;104262;-81
2021/12/10 04:57:43;;;;;;;147.60;64.60;;;;;;;7.44;98.22;100020.06;125173;1099;104249;-81
2021/12/10 05:00:20;;;;;;;156.00;66.40;;;;;;;7.47;97.67;100012.36;125236;1099;104216;-80
2021/12/10 05:02:53;;;;;;;153.63;64.43;;;;;;;7.50;98.27;100018.58;125236;1099;104251;-81
2021/12/10 05:05:24;;;;;;;148.60;61.57;;;;;;;7.54;98.29;100010.05;125256;1099;104232;-81
2021/12/10 05:07:56;;;;;;;138.43;62.47;;;;;;;7.58;97.72;100023.23;125271;1099;104258;-81
2021/12/10 05:10:28;;;;;;;144.70;56.57;;;;;;;7.64;98.42;100021.75;125264;1099;104201;-79
2021/12/10 05:12:59;;;;;;;130.97;57.70;;;;;;;7.67;98.26;100018.38;125189;1099;104149;-80
2021/12/10 05:15:34;;;;;;;122.40;55.67;;;;;;;7.74;98.06;100028.22;125283;1102;104172;-80
2021/12/10 05:18:06;;;;;;;138.50;57.50;;;;;;;7.77;98.20;100027.45;125267;1101;104325;-81
2021/12/10 05:20:41;;;;;;;118.63;55.00;;;;;;;7.81;98.31;100027.64;125274;1102;104316;-81
2021/12/10 05:23:14;;;;;;;120.60;54.13;;;;;;;7.84;98.16;100030.37;125201;1102;104277;-80
2021/12/10 05:25:46;;;;;;;116.43;47.93;;;;;;;7.88;98.04;100021.84;125312;1102;104179;-80
2021/12/10 05:28:18;;;;;;;126.33;54.70;;;;;;;7.91;97.64;100016.70;125222;1100;104306;-81
2021/12/10 05:30:54;;;;;;;119.60;51.60;;;;;;;7.97;97.77;100009.95;125164;1102;104290;-79
2021/12/10 05:33:28;;;;;;;113.10;50.00;;;;;;;8.02;97.57;100014.50;125285;1102;104149;-81
2021/12/10 05:36:01;;;;;;;111.42;48.63;;;;;;;8.07;97.77;100017.28;125205;1102;104207;-80
2021/12/10 05:38:34;;;;;;;99.80;43.17;;;;;;;8.14;98.83;100007.98;125140;1102;104519;-80
2021/12/10 05:41:09;;;;;;;94.87;42.40;;;;;;;8.20;98.66;100016.92;125154;1102;104277;-80
2021/12/10 05:43:43;;;;;;;92.93;40.83;;;;;;;8.25;98.04;100015.37;125103;1102;104353;-80
2021/12/10 05:46:16;;;;;;;91.23;40.07;;;;;;;8.33;98.37;100006.93;125078;1102;104310;-79
2021/12/10 05:48:53;;;;;;;90.80;40.40;;;;;;;8.41;98.14;100018.55;125070;1102;104265;-80
2021/12/10 05:51:24;;;;;;;86.93;39.53;;;;;;;8.45;97.67;100015.26;125150;1102;104220;-79
2021/12/10 05:53:56;;;;;;;83.20;38.93;;;;;;;8.52;97.85;100017.23;125188;1098;104242;-79
2021/12/10 05:56:28;;;;;;;85.97;38.73;;;;;;;8.57;98.39;100018.32;125210;1099;104121;-79
2021/12/10 05:59:01;;;;;;;76.72;33.80;;;;;;;8.65;98.46;100013.36;125137;1100;104178;-79
2021/12/10 06:01:34;;;;;;;77.97;34.63;;;;;;;8.69;97.78;99996.05;125202;1099;104242;-79
2021/12/10 06:04:07;;;;;;;76.43;33.60;;;;;;;8.73;97.59;99997.94;125119;1099;104165;-79
2021/12/10 06:06:39;;;;;;;72.80;32.67;;;;;;;8.78;98.62;99983.28;125194;1103;104248;-78
2021/12/10 06:09:11;;;;;;;75.63;34.23;;;;;;;8.83;98.09;99984.33;125130;1099;104679;-79
2021/12/10 06:11:43;;;;;;;66.30;30.40;;;;;;;8.87;98.84;99983.60;125129;1099;104146;-79
2021/12/10 06:14:14;;;;;;;77.70;33.37;;;;;;;8.90;98.04;99978.48;125039;1099;104261;-80
2021/12/10 06:16:45;;;;;;;73.87;32.50;;;;;;;8.94;98.52;99975.14;125104;1100;104159;-79
2021/12/10 06:19:18;;;;;;;77.40;32.63;;;;;;;8.97;98.30;99983.06;125114;1099;104191;-81
2021/12/10 06:21:50;;;;;;;70.07;30.97;;;;;;;9.00;97.78;99987.52;125026;1102;104248;-80
2021/12/10 06:24:24;;;;;;;64.20;32.55;;;;;;;9.03;98.26;99991.98;125024;1099;104175;-82
2021/12/10 06:27:00;;;;;;;71.20;29.90;;;;;;;9.07;98.42;99996.45;124983;1099;104214;-78
2021/12/10 06:29:33;;;;;;;66.33;30.10;;;;;;;9.09;97.95;99984.33;124983;1099;104163;-79
2021/12/10 06:32:17;;;;;;;63.43;28.93;;;;;;;9.14;97.61;99974.89;124962;1099;104310;-77
2021/12/10 06:34:49;;;;;;;70.10;29.60;;;;;;;9.16;98.25;99965.35;125003;1099;104165;-79
2021/12/10 06:37:21;;;;;;;60.13;28.37;;;;;;;9.20;97.60;99982.07;125230;1103;104208;-80
2021/12/10 06:39:53;;;;;;;60.50;28.35;;;;;;;9.25;98.17;99970.02;125218;1102;104217;-81
2021/12/10 06:42:28;;;;;;;67.93;29.63;;;;;;;9.27;97.70;99969.23;125159;1100;104153;-79
2021/12/10 06:44:59;;;;;;;69.67;29.50;;;;;;;9.31;97.94;99976.33;125263;1099;104146;-80
2021/12/10 06:47:31;;;;;;;59.50;27.80;;;;;;;9.33;97.48;99982.53;125209;1099;104300;-79
2021/12/10 06:50:03;;;;;;;59.10;27.03;;;;;;;9.37;98.02;99977.39;125675;1099;104178;-80
2021/12/10 06:52:59;;;;;;;61.10;27.47;;;;;;;9.39;98.00;99962.60;125488;1099;102689;-81
2021/12/10 06:56:16;;;;;;;59.10;27.20;;;;;;;9.42;97.37;99955.72;124870;1103;104232;-79
2021/12/10 06:59:02;;;;;;;58.53;23.67;;;;;;;9.48;97.72;99949.80;124949;1099;104320;-80
2021/12/10 07:01:40;;;;;;;45.00;23.03;;;;;;;9.52;97.33;99970.90;125055;1099;104165;-80
2021/12/10 07:04:15;;;;;;;62.27;22.70;;;;;;;9.58;97.36;99972.80;125139;1102;104181;-79
2021/12/10 07:06:49;;;;;;;51.93;25.03;;;;;;;9.63;97.11;99967.70;124985;1100;102206;-78
2021/12/10 07:09:21;;;;;;;;;;;;;;;9.67;97.05;99973.09;125070;1099;104191;-78
2021/12/10 07:11:55;;;;;;;57.63;25.47;;;;;;;9.72;97.44;99970.61;125018;1102;104424;-79
2021/12/10 07:14:29;;;;;;;53.20;24.10;;;;;;;9.78;97.08;99975.16;124968;1099;104159;-79
2021/12/10 07:17:04;;;;;;;55.90;24.17;;;;;;;9.81;96.99;99963.03;124944;1102;104243;-78
2021/12/10 07:19:37;;;;;;;51.73;22.83;;;;;;;9.87;97.46;99954.48;125130;1099;104150;-79
2021/12/10 07:22:09;;;;;;;48.53;24.73;;;;;;;9.92;97.68;99952.87;125164;1100;104181;-80
2021/12/10 07:24:45;;;;;;;54.33;23.67;;;;;;;9.99;97.60;99949.59;125002;1102;104313;-80
2021/12/10 07:27:20;;;;;;;54.90;24.83;;;;;;;10.02;97.29;99956.64;125014;1099;104208;-79
2021/12/10 07:29:54;;;;;;;50.50;22.93;;;;;;;10.02;97.19;99944.45;124952;1098;104200;-81
2021/12/10 07:32:36;;;;;;;46.77;20.30;;;;;;;10.02;96.62;99952.30;124920;1099;104172;-80
2021/12/10 07:35:16;;;;;;;51.33;20.60;;;;;;;10.05;97.34;99947.16;125020;1099;104159;-80
2021/12/10 07:37:56;;;;;;;42.70;20.17;;;;;;;10.10;96.96;99951.62;124773;1102;104265;-81
2021/12/10 07:40:36;;;;;;;46.80;21.10;;;;;;;10.16;97.25;99957.04;124902;1101;104301;-81
2021/12/10 07:43:15;;;;;;;44.87;18.70;;;;;;;10.18;97.05;99953.63;124850;1103;104188;-79
2021/12/10 07:45:51;;;;;;;45.93;20.23;;;;;;;10.21;97.01;99950.22;124789;1102;104217;-81
2021/12/10 07:48:29;;;;;;;49.47;19.40;;;;;;;10.24;96.86;99955.55;124975;1102;104207;-81
2021/12/10 07:51:16;;;;;;;43.17;20.63;;;;;;;10.27;96.71;99963.50;125035;1102;104271;-82
2021/12/10 07:53:54;;;;;;;41.83;18.60;;;;;;;10.32;96.64;99961.02;124760;1102;104667;-83
2021/12/10 07:56:29;;;;;;;40.80;20.27;;;;;;;10.38;97.21;99963.84;124920;1100;104219;-81
2021/12/10 07:59:10;;;;;;;42.60;20.07;;;;;;;10.43;96.69;99959.59;125174;1099;111241;-81
2021/12/10 08:02:07;;;;;;;41.20;19.17;;;;;;;10.49;96.67;99954.52;124956;1102;104175;-82
2021/12/10 08:04:42;;;;;;;46.97;21.73;;;;;;;10.55;97.04;99952.06;126111;1102;103063;-83
2021/12/10 08:07:19;;;;;;;36.17;15.80;;;;;;;10.59;96.33;99958.27;124983;1102;104252;-83
2021/12/10 08:09:53;;;;;;;43.53;18.03;;;;;;;10.62;96.72;99945.23;125136;1100;104217;-83
2021/12/10 08:12:38;;;;;;;41.67;20.00;;;;;;;10.66;96.72;99949.73;125143;1099;104242;-82
2021/12/10 08:15:19;;;;;;;39.70;16.95;;;;;;;10.71;96.65;99944.61;125046;1101;104233;-83
2021/12/10 08:17:57;;;;;;;38.23;18.80;;;;;;;10.74;96.72;99950.81;125014;1099;104315;-81
2021/12/10 08:20:37;;;;;;;40.00;18.20;;;;;;;10.76;96.36;99953.48;124940;1102;104204;-82
2021/12/10 08:23:14;;;;;;;41.57;18.57;;;;;;;10.79;96.58;99950.93;124901;1099;104232;-81
2021/12/10 08:25:46;;;;;;;42.73;16.37;;;;;;;10.85;96.31;99950.22;124936;1099;104178;-81
2021/12/10 08:28:25;;;;;;;35.77;16.17;;;;;;;10.82;95.93;99944.88;125094;1102;104200;-82
2021/12/10 08:31:02;;;;;;;36.87;16.17;;;;;;;10.85;96.31;99931.84;125091;1099;104166;-80
2021/12/10 08:33:37;;;;;;;39.67;15.67;;;;;;;10.88;96.53;99924.05;125046;1102;104322;-80
2021/12/10 08:36:11;;;;;;;33.00;15.63;;;;;;;10.91;96.29;99922.38;125017;1098;104171;-80
2021/12/10 08:38:52;;;;;;;33.50;15.07;;;;;;;10.96;96.54;99919.86;125024;1102;104192;-80
2021/12/10 08:41:47;;;;;;;34.90;15.47;;;;;;;10.99;96.05;99919.94;125073;1099;104697;-83
2021/12/10 08:44:44;;;;;;;;;;;;;;;;;;;;;
2021/12/10 08:47:19;;;;;;;40.00;16.13;;;;;;;11.04;96.11;99931.44;124931;1099;104175;-81
2021/12/10 08:49:51;;;;;;;35.73;14.87;;;;;;;11.04;95.89;99931.44;125338;1099;104182;-80
2021/12/10 08:52:26;;;;;;;35.73;15.53;;;;;;;11.04;95.90;99928.81;124976;1102;104208;-81
2021/12/10 08:54:59;;;;;;;38.27;15.23;;;;;;;11.08;95.64;99925.42;125075;1102;104204;-79
2021/12/10 08:57:33;;;;;;;25.83;12.20;;;;;;;11.11;95.80;99925.50;125548;1099;104215;-79
2021/12/10 09:00:06;;;;;;;;;;;;;;;11.12;95.86;99926.38;125166;1099;104175;-79
2021/12/10 09:02:39;;;;;;;32.63;14.00;;;;;;;11.15;96.20;99915.94;125085;1099;104140;-81
2021/12/10 09:05:13;;;;;;;36.00;14.57;;;;;;;11.17;95.79;99906.35;125097;1099;104235;-80
2021/12/10 09:07:47;;;;;;;35.67;14.53;;;;;;;11.19;95.34;99901.14;125049;1102;104259;-80
2021/12/10 09:10:27;;;;;;;32.37;14.73;;;;;;;11.25;95.59;99896.03;125030;1102;104332;-80
2021/12/10 09:13:03;;;;;;;35.23;13.73;;;;;;;11.28;95.46;99891.76;125020;1102;104144;-80
2021/12/10 09:15:36;;;;;;;33.20;13.23;;;;;;;11.35;95.97;99903.28;125123;1102;104165;-79
2021/12/10 09:18:11;;;;;;;29.12;11.85;;;;;;;11.42;95.72;99901.67;125068;1102;104226;-81
2021/12/10 09:20:49;;;;;;;30.10;14.13;;;;;;;11.44;95.85;99890.36;125099;1102;104159;-80
2021/12/10 09:23:26;;;;;;;30.07;12.97;;;;;;;11.45;95.14;99881.63;124868;1105;104284;-80
2021/12/10 09:26:05;;;;;;;31.90;13.57;;;;;;;11.52;96.03;99885.27;124871;1102;104162;-80
2021/12/10 09:28:42;;;;;;;24.87;13.17;;;;;;;11.60;96.17;99878.44;124908;1102;104146;-80
2021/12/10 09:31:18;;;;;;;30.43;13.17;;;;;;;11.63;94.58;99877.63;124872;1102;109429;-82
2021/12/10 09:33:53;;;;;;;33.93;14.30;;;;;;;11.70;95.79;99879.51;124898;1102;104150;-80
2021/12/10 09:36:28;;;;;;;27.80;12.40;;;;;;;11.76;95.65;99882.27;124810;1105;104173;-82
2021/12/10 09:39:01;;;;;;;27.03;11.43;;;;;;;11.79;94.37;99863.94;124800;1102;104329;-82
2021/12/10 09:41:36;;;;;;;;;;;;;;;11.83;94.45;99871.04;125170;1099;104608;-81
2021/12/10 09:44:19;;;;;;;33.98;13.60;;;;;;;11.89;95.59;99865.03;124945;1102;104144;-81
2021/12/10 09:46:53;;;;;;;29.33;11.83;;;;;;;11.95;95.85;99874.80;124981;1102;104271;-80
2021/12/10 09:49:28;;;;;;;27.37;11.60;;;;;;;11.98;95.14;99857.36;125057;1101;104178;-84
2021/12/10 09:52:16;;;;;;;28.17;10.87;;;;;;;11.99;94.30;99867.00;125112;1102;104233;-81
2021/12/10 09:54:51;;;;;;;32.73;11.70;;;;;;;11.99;94.35;99866.13;125020;1102;104216;-82
2021/12/10 09:57:32;;;;;;;32.27;10.67;;;;;;;12.05;95.25;99864.49;125078;1102;104156;-83
2021/12/10 10:00:22;;;;;;;32.80;11.50;;;;;;;12.11;95.14;99858.48;125145;1102;104149;-81
2021/12/10 10:03:06;;;;;;;30.50;12.20;;;;;;;12.20;95.65;99863.01;125080;1102;104373;-80
2021/12/10 10:05:48;;;;;;;30.27;11.57;;;;;;;12.20;94.50;99850.77;125057;1102;104198;-80
2021/12/10 10:08:29;;;;;;;28.00;12.33;;;;;;;12.27;95.61;99856.14;125057;1102;103428;-82
2021/12/10 10:11:07;;;;;;;26.10;11.57;;;;;;;12.33;94.71;99850.99;125241;1102;104140;-79
2021/12/10 10:13:43;;;;;;;27.07;11.30;;;;;;;12.39;94.60;99851.10;125124;1102;104261;-78
2021/12/10 10:16:16;;;;;;;25.70;11.10;;;;;;;12.40;94.43;99851.13;125149;1102;104573;-81
2021/12/10 10:18:51;;;;;;;29.30;10.45;;;;;;;12.35;94.89;99829.09;125070;1102;104146;-80
2021/12/10 10:21:33;;;;;;;31.17;11.53;;;;;;;12.40;93.39;99834.44;125116;1103;102479;-80
2021/12/10 10:24:11;;;;;;;27.23;12.13;;;;;;;12.38;93.92;99834.41;125029;1102;102808;-80
2021/12/10 10:26:49;;;;;;;25.60;10.33;;;;;;;12.36;94.12;99833.50;125066;1102;104207;-81
2021/12/10 10:29:25;;;;;;;25.37;10.67;;;;;;;12.37;94.69;99834.37;125019;1103;104638;-80
2021/12/10 10:32:09;;;;;;;23.97;11.53;;;;;;;12.35;94.92;99829.09;124970;1102;105385;-80
2021/12/10 10:34:49;;;;;;;27.70;10.45;;;;;;;12.28;94.62;99839.48;125011;1102;105073;-80
2021/12/10 10:37:37;;;;;;;30.43;10.53;;;;;;;12.19;93.97;99830.57;124966;1102;104248;-80
2021/12/10 10:40:38;;;;;;;28.93;11.40;;;;;;;12.13;94.97;99835.72;125102;1102;104143;-81
2021/12/10 10:43:18;;;;;;;26.70;11.70;;;;;;;12.04;94.10;99832.91;125115;1099;104233;-81
2021/12/10 10:45:56;;;;;;;30.60;11.50;;;;;;;11.99;94.77;99824.05;124996;1102;104771;-79
2021/12/10 10:48:35;;;;;;;23.40;10.47;;;;;;;11.97;94.10;99815.27;124994;1102;104242;-80
2021/12/10 10:51:17;;;;;;;27.00;11.80;;;;;;;11.99;94.58;99814.41;125091;1099;104309;-80
2021/12/10 10:54:09;;;;;;;28.23;11.80;;;;;;;12.05;94.92;99817.16;125868;1099;104278;-79
2021/12/10 10:59:40;;;;;;;25.87;11.87;;;;;;;12.02;95.27;99816.23;125121;1103;104349;-80
2021/12/10 11:02:24;;;;;;;28.40;12.13;;;;;;;11.97;95.08;99812.63;125096;1102;104672;-80
2021/12/10 11:05:13;;;;;;;22.87;11.50;;;;;;;11.90;95.00;99797.55;125033;1102;104165;-80
2021/12/10 11:08:06;;;;;;;26.87;11.93;;;;;;;11.84;95.18;99801.84;125179;1102;104227;-80
2021/12/10 11:11:05;;;;;;;26.20;11.90;;;;;;;11.79;95.26;99803.48;125089;1102;104152;-79
2021/12/10 11:13:52;;;;;;;25.60;11.77;;;;;;;11.75;94.85;99799.04;125155;1102;107686;-82
2021/12/10 11:16:56;;;;;;;28.47;13.13;;;;;;;11.74;95.27;99805.14;125144;1102;102567;-81
2021/12/10 11:19:48;;;;;;;;;;;;;;;;;;;;;
2021/12/10 11:22:56;;;;;;;27.37;11.97;;;;;;;11.67;95.73;99785.75;124846;1102;102601;-80
2021/12/10 11:26:39;;;;;;;33.33;13.47;;;;;;;11.62;95.76;99799.64;124966;1102;104322;-79
2021/12/10 11:36:50;;;;;;;28.80;12.47;;;;;;;11.51;95.97;99787.19;124375;1109;104372;-80
2021/12/10 11:40:15;;;;;;;27.23;12.37;;;;;;;11.50;95.89;99788.03;124383;1109;104240;-80
2021/12/10 11:46:47;;;;;;;31.10;13.73;;;;;;;11.45;95.51;99775.64;124108;1112;104357;-80
2021/12/10 11:49:38;;;;;;;26.43;12.63;;;;;;;11.47;95.79;99777.45;124441;1109;104389;-78
2021/12/10 11:52:32;;;;;;;28.70;12.97;;;;;;;11.50;95.75;99767.02;124419;1109;104015;-80
2021/12/10 11:55:18;;;;;;;30.73;13.83;;;;;;;11.55;95.83;99763.60;124511;1109;104195;-78
2021/12/10 11:57:52;;;;;;;29.47;13.17;;;;;;;11.56;95.98;99761.00;124533;1109;104367;-77
2021/12/10 12:00:35;;;;;;;31.33;13.23;;;;;;;11.54;95.43;99760.06;124672;1106;104237;-80
2021/12/10 12:03:13;;;;;;;26.90;12.80;;;;;;;11.50;95.70;99758.25;124934;1105;104768;-78
2021/12/10 12:05:50;;;;;;;29.57;12.67;;;;;;;11.49;95.64;99745.96;124852;1105;104777;-80
2021/12/10 12:08:25;;;;;;;25.93;11.87;;;;;;;11.48;95.86;99741.55;124819;1102;104175;-80